createdAt,value
2022-10-07T00:00:20.346Z,3.50
2022-10-07T00:03:23.660Z,3.55
2022-10-07T00:06:25.199Z,3.63
2022-10-07T00:09:26.932Z,3.42
2022-10-07T00:12:29.044Z,3.80
2022-10-07T00:15:30.584Z,3.35
2022-10-07T00:18:32.298Z,3.45
2022-10-07T00:21:35.666Z,3.45
2022-10-07T00:24:37.430Z,3.33
2022-10-07T00:27:56.483Z,3.65
2022-10-07T00:31:03.049Z,3.30
2022-10-07T00:34:12.257Z,3.50
2022-10-07T00:37:30.984Z,3.83
2022-10-07T00:40:32.863Z,3.43
2022-10-07T00:43:34.984Z,3.70
2022-10-07T00:46:40.468Z,3.90
2022-10-07T00:49:49.980Z,3.78
2022-10-07T00:52:55.280Z,3.35
2022-10-07T00:55:57.971Z,3.58
2022-10-07T00:58:59.593Z,3.65
2022-10-07T01:02:01.145Z,3.55
2022-10-07T01:05:05.876Z,3.90
2022-10-07T01:08:07.348Z,3.90
2022-10-07T01:11:46.358Z,3.72
2022-10-07T01:14:50.746Z,3.90
2022-10-07T01:18:08.427Z,3.38
2022-10-07T01:21:23.274Z,3.78
2022-10-07T01:24:39.976Z,3.63
2022-10-07T01:27:47.680Z,3.72
2022-10-07T01:30:56.575Z,3.78
2022-10-07T01:33:59.022Z,3.40
2022-10-07T01:37:02.879Z,3.60
2022-10-07T01:40:14.632Z,3.75
2022-10-07T01:43:18.825Z,3.55
2022-10-07T01:46:27.172Z,3.50
2022-10-07T01:49:31.872Z,3.47
2022-10-07T01:52:51.767Z,3.17
2022-10-07T01:56:02.149Z,3.72
2022-10-07T01:59:26.273Z,3.80
2022-10-07T02:03:02.027Z,3.67
2022-10-07T02:06:16.553Z,3.33
2022-10-07T02:09:35.240Z,3.25
2022-10-07T02:12:55.513Z,3.30
2022-10-07T02:16:05.496Z,3.70
2022-10-07T02:19:13.848Z,3.33
2022-10-07T02:22:17.428Z,3.70
2022-10-07T02:25:22.007Z,3.38
2022-10-07T02:28:25.416Z,3.08
2022-10-07T02:31:32.119Z,3.65
2022-10-07T02:34:36.201Z,3.50
2022-10-07T02:37:38.200Z,3.60
2022-10-07T02:41:01.309Z,4.00
2022-10-07T02:44:16.831Z,3.47
2022-10-07T02:47:29.029Z,3.75
2022-10-07T02:50:39.909Z,3.95
2022-10-07T02:53:42.305Z,4.40
2022-10-07T02:59:48.532Z,3.63
2022-10-07T03:02:54.954Z,3.53
2022-10-07T03:06:00.643Z,3.58
2022-10-07T03:09:04.564Z,3.47
2022-10-07T03:12:06.070Z,3.97
2022-10-07T03:15:08.378Z,4.32
2022-10-07T03:18:26.246Z,4.10
2022-10-07T03:21:33.502Z,4.40
2022-10-07T03:24:36.460Z,4.32
2022-10-07T03:27:39.220Z,4.03
2022-10-07T03:30:41.215Z,3.78
2022-10-07T03:33:43.133Z,3.30
2022-10-07T03:36:45.383Z,3.80
2022-10-07T03:39:47.604Z,3.47
2022-10-07T03:42:50.327Z,3.67
2022-10-07T03:45:52.281Z,3.60
2022-10-07T03:51:56.002Z,3.47
2022-10-07T03:54:57.473Z,3.58
2022-10-07T03:57:59.815Z,3.30
2022-10-07T04:01:08.939Z,3.50
2022-10-07T04:04:12.703Z,3.38
2022-10-07T04:07:15.194Z,3.53
2022-10-07T04:10:18.740Z,3.37
2022-10-07T04:13:28.118Z,3.33
2022-10-07T04:16:41.772Z,2.92
2022-10-07T04:19:46.967Z,3.50
2022-10-07T04:22:48.632Z,3.33
2022-10-07T04:25:50.239Z,3.80
2022-10-07T04:28:54.317Z,3.42
2022-10-07T04:31:58.793Z,3.40
2022-10-07T04:35:00.953Z,3.55
2022-10-07T04:38:02.744Z,3.72
2022-10-07T04:41:06.912Z,3.38
2022-10-07T04:44:10.044Z,3.45
2022-10-07T04:47:18.724Z,3.20
2022-10-07T04:50:20.395Z,3.22
2022-10-07T04:53:23.209Z,3.88
2022-10-07T04:56:28.211Z,3.53
2022-10-07T04:59:31.612Z,3.88
2022-10-07T05:02:33.909Z,3.65
2022-10-07T05:05:43.982Z,4.18
2022-10-07T05:08:46.143Z,3.60
2022-10-07T05:11:52.420Z,3.60
2022-10-07T05:14:55.033Z,4.10
2022-10-07T05:17:57.017Z,3.80
2022-10-07T05:21:05.243Z,4.18
2022-10-07T05:24:07.796Z,4.18
2022-10-07T05:27:13.896Z,4.05
2022-10-07T05:30:15.860Z,4.07
2022-10-07T05:33:17.788Z,4.00
2022-10-07T05:36:20.148Z,4.13
2022-10-07T05:39:22.601Z,3.90
2022-10-07T05:42:27.640Z,4.18
2022-10-07T05:45:31.310Z,4.18
2022-10-07T05:48:39.253Z,3.88
2022-10-07T05:51:42.157Z,4.18
2022-10-07T05:54:44.034Z,4.10
2022-10-07T05:57:47.981Z,4.22
2022-10-07T06:01:02.402Z,4.75
2022-10-07T06:04:08.604Z,4.63
2022-10-07T06:07:18.219Z,4.30
2022-10-07T06:10:40.926Z,3.90
2022-10-07T06:13:48.634Z,4.07
2022-10-07T06:16:50.305Z,4.28
2022-10-07T06:19:51.811Z,4.03
2022-10-07T06:22:58.087Z,4.13
2022-10-07T06:26:03.633Z,4.47
2022-10-07T06:29:05.274Z,4.30
2022-10-07T06:32:07.326Z,4.45
2022-10-07T06:35:09.602Z,4.03
2022-10-07T06:38:12.243Z,4.20
2022-10-07T06:41:14.864Z,4.43
2022-10-07T06:44:17.286Z,3.88
2022-10-07T06:50:21.705Z,4.10
2022-10-07T06:53:23.363Z,4.00
2022-10-07T06:56:24.827Z,4.18
2022-10-07T06:59:26.364Z,4.13
2022-10-07T07:02:34.535Z,3.88
2022-10-07T07:05:41.478Z,4.05
2022-10-07T07:08:50.082Z,4.15
2022-10-07T07:11:56.382Z,4.38
2022-10-07T07:15:02.259Z,4.97
2022-10-07T07:18:05.707Z,4.10
2022-10-07T07:21:07.730Z,4.70
2022-10-07T07:24:10.462Z,4.30
2022-10-07T07:27:13.885Z,4.82
2022-10-07T07:30:15.417Z,4.60
2022-10-07T07:33:18.732Z,4.60
2022-10-07T07:36:23.958Z,4.85
2022-10-07T07:39:25.653Z,4.40
2022-10-07T07:42:34.811Z,4.53
2022-10-07T07:45:36.938Z,4.53
2022-10-07T07:51:44.286Z,4.90
2022-10-07T07:54:51.922Z,4.80
2022-10-07T07:57:53.704Z,5.10
2022-10-07T08:01:00.668Z,4.82
2022-10-07T08:04:04.170Z,4.72
2022-10-07T08:07:07.506Z,4.30
2022-10-07T08:10:09.640Z,4.63
2022-10-07T08:13:11.369Z,4.60
2022-10-07T08:16:16.506Z,5.00
2022-10-07T08:19:19.309Z,5.10
2022-10-07T08:22:20.976Z,5.18
2022-10-07T08:25:25.769Z,4.97
2022-10-07T08:28:28.299Z,4.72
2022-10-07T08:31:31.733Z,5.25
2022-10-07T08:34:33.261Z,6.68
2022-10-07T08:37:34.809Z,4.88
2022-10-07T08:40:37.157Z,4.80
2022-10-07T08:43:49.210Z,4.70
2022-10-07T08:47:10.741Z,5.07
2022-10-07T08:50:23.575Z,5.03
2022-10-07T08:53:34.563Z,5.03
2022-10-07T08:56:36.091Z,4.63
2022-10-07T08:59:44.539Z,5.20
2022-10-07T09:03:01.959Z,4.90
2022-10-07T09:06:10.947Z,4.65
2022-10-07T09:09:38.240Z,5.22
2022-10-07T09:12:58.576Z,4.70
2022-10-07T09:16:11.858Z,4.90
2022-10-07T09:19:26.034Z,4.95
2022-10-07T09:22:39.911Z,4.80
2022-10-07T09:25:42.432Z,5.70
2022-10-07T09:28:44.030Z,4.70
2022-10-07T09:31:45.670Z,4.78
2022-10-07T09:34:47.699Z,4.45
2022-10-07T09:37:58.782Z,5.03
2022-10-07T09:41:16.096Z,4.80
2022-10-07T09:44:17.452Z,5.28
2022-10-07T09:47:22.894Z,5.18
2022-10-07T09:50:34.162Z,4.72
2022-10-07T09:53:35.912Z,4.70
2022-10-07T09:56:44.488Z,5.18
2022-10-07T09:59:46.254Z,4.90
2022-10-07T10:03:04.916Z,5.10
2022-10-07T10:06:08.763Z,5.80
2022-10-07T10:09:11.813Z,5.05
2022-10-07T10:12:15.545Z,5.43
2022-10-07T10:15:35.549Z,4.93
2022-10-07T10:18:41.601Z,5.18
2022-10-07T10:21:44.186Z,5.20
2022-10-07T10:25:04.280Z,5.10
2022-10-07T10:28:36.566Z,5.20
2022-10-07T10:32:02.298Z,4.85
2022-10-07T10:35:15.058Z,5.00
2022-10-07T10:38:27.487Z,5.13
2022-10-07T10:41:41.866Z,5.18
2022-10-07T10:44:49.405Z,5.30
2022-10-07T10:48:20.649Z,5.20
2022-10-07T10:51:50.135Z,5.40
2022-10-07T10:55:12.806Z,5.28
2022-10-07T10:58:54.243Z,5.18
2022-10-07T11:02:17.876Z,4.82
2022-10-07T11:05:30.807Z,4.82
2022-10-07T11:08:38.339Z,5.15
2022-10-07T11:11:43.370Z,5.05
2022-10-07T11:14:57.610Z,5.00
2022-10-07T11:18:05.621Z,5.07
2022-10-07T11:21:13.178Z,5.03
2022-10-07T11:24:42.724Z,4.95
2022-10-07T11:27:46.865Z,5.10
2022-10-07T11:30:57.960Z,4.68
2022-10-07T11:34:16.850Z,4.73
2022-10-07T11:37:27.040Z,5.47
2022-10-07T11:40:33.545Z,4.72
2022-10-07T11:43:45.249Z,4.95
2022-10-07T11:46:48.413Z,4.85
2022-10-07T11:50:02.514Z,4.88
2022-10-07T11:53:09.667Z,4.93
2022-10-07T11:56:22.652Z,4.80
2022-10-07T11:59:36.709Z,4.82
2022-10-07T12:02:41.675Z,4.82
2022-10-07T12:05:49.176Z,5.18
2022-10-07T12:08:52.023Z,5.97
2022-10-07T12:11:56.696Z,5.13
2022-10-07T12:15:00.813Z,5.32
2022-10-07T12:18:05.377Z,5.78
2022-10-07T12:21:07.680Z,4.90
2022-10-07T12:24:14.233Z,4.70
2022-10-07T12:27:29.237Z,5.35
2022-10-07T12:30:42.255Z,4.80
2022-10-07T12:33:43.988Z,4.90
2022-10-07T12:36:45.422Z,5.13
2022-10-07T12:39:47.425Z,5.05
2022-10-07T12:42:58.454Z,5.00
2022-10-07T12:46:03.896Z,4.57
2022-10-07T12:49:26.260Z,4.93
2022-10-07T12:52:44.018Z,5.15
2022-10-07T12:55:52.901Z,4.72
2022-10-07T12:59:13.133Z,4.43
2022-10-07T13:02:24.069Z,4.90
2022-10-07T13:05:31.612Z,5.03
2022-10-07T13:08:54.575Z,4.57
2022-10-07T13:12:19.208Z,4.80
2022-10-07T13:15:29.124Z,4.75
2022-10-07T13:18:45.777Z,4.78
2022-10-07T13:21:58.400Z,5.05
2022-10-07T13:25:03.209Z,4.72
2022-10-07T13:28:07.038Z,4.72
2022-10-07T13:31:19.691Z,4.97
2022-10-07T13:34:21.393Z,6.00
2022-10-07T13:37:33.041Z,4.80
2022-10-07T13:40:35.504Z,5.22
2022-10-07T13:43:38.633Z,5.38
2022-10-07T13:46:42.125Z,4.97
2022-10-07T13:49:46.926Z,5.72
2022-10-07T13:52:50.296Z,4.63
2022-10-07T13:56:22.248Z,4.90
2022-10-07T13:59:24.120Z,5.20
2022-10-07T14:05:30.474Z,5.05
2022-10-07T14:08:32.054Z,4.97
2022-10-07T14:11:35.018Z,5.00
2022-10-07T14:14:39.823Z,5.43
2022-10-07T14:17:48.260Z,5.10
2022-10-07T14:20:56.036Z,5.18
2022-10-07T14:23:58.252Z,5.70
2022-10-07T14:27:00.422Z,4.93
2022-10-07T14:30:01.871Z,4.90
2022-10-07T14:33:33.317Z,5.03
2022-10-07T14:36:36.017Z,4.88
2022-10-07T14:39:38.667Z,5.20
2022-10-07T14:42:40.102Z,4.80
2022-10-07T14:45:42.057Z,6.30
2022-10-07T14:51:46.138Z,5.30
2022-10-07T14:54:48.641Z,5.28
2022-10-07T14:57:50.250Z,5.22
2022-10-07T15:00:54.623Z,5.13
2022-10-07T15:03:57.306Z,5.30
2022-10-07T15:06:58.836Z,5.35
2022-10-07T15:10:00.355Z,5.35
2022-10-07T15:13:13.190Z,5.35
2022-10-07T15:16:17.985Z,5.32
2022-10-07T15:19:19.701Z,5.60
2022-10-07T15:22:21.186Z,4.68
2022-10-07T15:25:22.846Z,5.63
2022-10-07T15:28:24.404Z,5.30
2022-10-07T15:31:29.160Z,5.10
2022-10-07T15:34:30.922Z,5.50
2022-10-07T15:37:33.481Z,5.50
2022-10-07T15:40:51.601Z,4.90
2022-10-07T15:43:52.977Z,5.43
2022-10-07T15:46:54.650Z,5.63
2022-10-07T15:49:56.049Z,5.22
2022-10-07T15:52:57.628Z,5.20
2022-10-07T15:55:59.096Z,5.15
2022-10-07T15:59:02.061Z,5.45
2022-10-07T16:02:05.727Z,5.50
2022-10-07T16:05:07.988Z,5.38
2022-10-07T16:08:09.926Z,5.07
2022-10-07T16:14:14.226Z,5.20
2022-10-07T16:17:15.681Z,5.82
2022-10-07T16:20:18.447Z,5.50
2022-10-07T16:23:20.044Z,5.00
2022-10-07T16:26:24.444Z,5.05
2022-10-07T16:29:44.738Z,5.30
2022-10-07T16:32:46.878Z,5.50
2022-10-07T16:35:48.481Z,5.63
2022-10-07T16:38:51.245Z,6.22
2022-10-07T16:41:53.291Z,5.60
2022-10-07T16:47:56.939Z,6.05
2022-10-07T16:50:59.268Z,5.30
2022-10-07T16:54:03.241Z,6.05
2022-10-07T16:57:04.741Z,6.05
2022-10-07T17:00:07.483Z,5.88
2022-10-07T17:03:09.653Z,6.75
2022-10-07T17:06:13.952Z,6.70
2022-10-07T17:09:17.379Z,6.57
2022-10-07T17:12:18.814Z,6.68
2022-10-07T17:15:20.521Z,7.20
2022-10-07T17:18:22.050Z,6.90
2022-10-07T17:21:23.786Z,7.10
2022-10-07T17:24:25.681Z,7.65
2022-10-07T17:27:27.110Z,6.50
2022-10-07T17:30:29.542Z,6.85
2022-10-07T17:33:31.108Z,7.45
2022-10-07T17:36:33.339Z,6.57
2022-10-07T17:39:34.828Z,7.45
2022-10-07T17:42:36.245Z,8.10
2022-10-07T17:45:39.418Z,7.45
2022-10-07T17:48:45.299Z,7.32
2022-10-07T17:51:46.768Z,7.78
2022-10-07T17:54:50.064Z,8.10
2022-10-07T17:57:51.490Z,7.85
2022-10-07T18:00:52.986Z,7.78
2022-10-07T18:03:57.488Z,7.50
2022-10-07T18:06:59.008Z,7.80
2022-10-07T18:10:00.747Z,7.88
2022-10-07T18:13:20.963Z,8.32
2022-10-07T18:16:22.626Z,8.10
2022-10-07T18:19:25.067Z,7.65
2022-10-07T18:22:26.523Z,7.70
2022-10-07T18:25:28.014Z,7.60
2022-10-07T18:28:32.552Z,7.80
2022-10-07T18:31:34.029Z,7.15
2022-10-07T18:34:35.718Z,7.65
2022-10-07T18:37:37.465Z,7.70
2022-10-07T18:40:38.890Z,8.15
2022-10-07T18:43:41.181Z,8.10
2022-10-07T18:46:42.604Z,8.60
2022-10-07T18:49:44.060Z,8.20
2022-10-07T18:52:45.492Z,8.52
2022-10-07T18:55:46.898Z,9.27
2022-10-07T18:58:51.366Z,8.55
2022-10-07T19:01:52.857Z,8.68
2022-10-07T19:04:54.380Z,8.57
2022-10-07T19:07:56.102Z,8.38
2022-10-07T19:11:02.615Z,9.23
2022-10-07T19:14:04.229Z,9.18
2022-10-07T19:17:05.629Z,9.38
2022-10-07T19:20:07.501Z,9.80
2022-10-07T19:23:10.994Z,9.57
2022-10-07T19:26:14.835Z,9.10
2022-10-07T19:29:19.228Z,8.98
2022-10-07T19:32:21.144Z,10.05
2022-10-07T19:35:22.728Z,9.55
2022-10-07T19:38:24.376Z,9.32
2022-10-07T19:41:28.861Z,9.80
2022-10-07T19:44:31.702Z,11.27
2022-10-07T19:47:34.625Z,9.98
2022-10-07T19:50:37.537Z,10.10
2022-10-07T19:53:46.639Z,10.98
2022-10-07T19:56:49.330Z,11.57
2022-10-07T19:59:50.796Z,10.57
2022-10-07T20:02:56.144Z,10.27
2022-10-07T20:06:00.128Z,11.18
2022-10-07T20:09:01.865Z,10.45
2022-10-07T20:12:04.611Z,11.57
2022-10-07T20:15:07.009Z,11.23
2022-10-07T20:18:09.879Z,10.63
2022-10-07T20:21:23.713Z,11.23
2022-10-07T20:24:25.525Z,12.10
2022-10-07T20:27:26.969Z,11.15
2022-10-07T20:30:28.401Z,11.68
2022-10-07T20:33:30.802Z,11.00
2022-10-07T20:36:34.873Z,11.25
2022-10-07T20:39:55.025Z,11.38
2022-10-07T20:42:59.429Z,11.32
2022-10-07T20:46:00.862Z,10.82
2022-10-07T20:49:02.655Z,11.25
2022-10-07T20:52:07.403Z,11.05
2022-10-07T20:55:11.576Z,12.00
2022-10-07T20:58:13.650Z,10.88
2022-10-07T21:01:15.134Z,10.50
2022-10-07T21:04:17.062Z,10.55
2022-10-07T21:07:19.506Z,9.95
2022-10-07T21:10:21.020Z,9.70
2022-10-07T21:13:22.443Z,10.45
2022-10-07T21:16:26.342Z,10.32
2022-10-07T21:19:31.572Z,10.70
2022-10-07T21:22:33.164Z,10.35
2022-10-07T21:25:34.773Z,10.35
2022-10-07T21:28:37.284Z,9.80
2022-10-07T21:31:39.918Z,10.05
2022-10-07T21:34:41.318Z,11.18
2022-10-07T21:37:43.363Z,10.93
2022-10-07T21:40:44.796Z,10.80
2022-10-07T21:43:50.756Z,10.48
2022-10-07T21:46:52.255Z,10.40
2022-10-07T21:49:53.716Z,10.95
2022-10-07T21:52:55.084Z,9.43
2022-10-07T21:55:56.744Z,9.27
2022-10-07T21:59:01.192Z,9.25
2022-10-07T22:02:02.867Z,9.70
2022-10-07T22:05:05.232Z,8.88
2022-10-07T22:08:36.227Z,8.88
2022-10-07T22:11:38.262Z,8.23
2022-10-07T22:14:40.101Z,8.38
2022-10-07T22:17:41.545Z,9.13
2022-10-07T22:20:44.186Z,8.27
2022-10-07T22:23:52.218Z,8.40
2022-10-07T22:26:53.641Z,8.45
2022-10-07T22:29:55.055Z,8.40
2022-10-07T22:32:56.563Z,8.10
2022-10-07T22:35:59.265Z,8.25
2022-10-07T22:39:01.372Z,8.63
2022-10-07T22:45:06.260Z,7.85
2022-10-07T22:48:07.892Z,8.13
2022-10-07T22:51:12.400Z,8.25
2022-10-07T22:54:14.425Z,8.80
2022-10-07T22:57:16.576Z,8.00
2022-10-07T23:03:19.435Z,8.30
2022-10-07T23:06:22.497Z,8.55
2022-10-07T23:09:23.913Z,8.07
2022-10-07T23:12:25.347Z,8.30
2022-10-07T23:15:26.792Z,8.57
2022-10-07T23:18:29.716Z,8.63
2022-10-07T23:21:34.599Z,9.35
2022-10-07T23:24:36.440Z,9.10
2022-10-07T23:27:38.674Z,8.65
2022-10-07T23:33:41.521Z,9.15
2022-10-07T23:36:42.963Z,8.38
2022-10-07T23:39:44.447Z,8.50
2022-10-07T23:42:46.661Z,8.70
2022-10-07T23:45:50.981Z,8.40
2022-10-07T23:48:53.138Z,8.23
2022-10-07T23:54:55.922Z,7.68
2022-10-07T23:57:57.340Z,8.13
